Coal City, WV (25823)

1:45 PM EST on February 11, 2016 (GMT -0500)
Cool Ridge | | Change Station
CLOSE
Current Station
Personal Weather Station
Location: Raleigh Co., WV
Elevation: 2965 ft
Nearby Weather Stations

Elev 2965 ft 37.66 °N, 81.09 °W | Updated 20 seconds ago

Partly Cloudy
Partly Cloudy
19.3 °F
Feels Like 19 °F
N
2.0
Wind Variable Wind from NW
Gusts 5.0 mph

Today
High -- | Low -- °F
--% Chance of Precip.
Yesterday
High -- | Low -- °F
Precip. -- in
Pressure 30.26 in
Visibility 10.0 miles
Clouds Mostly Cloudy 3000 ft
Windchill 19 °F
Dew Point 6 °F
Humidity 57%
Rainfall 0.00 in
Snow Depth Not available.
7:19 AM 5:59 PM
Waxing Crescent, 13% visible
METAR KBKW 111751Z AUTO 28009KT 10SM BKN030 M08/M16 A3009 RMK AO2 SLP246 60000 T10781156 11078 21122 58002
Pressure 30.26 in
Visibility 10.0 miles
Clouds Mostly Cloudy 3000 ft
Windchill 19 °F
Dew Point 6 °F
Humidity 57%
Rainfall 0.00 in
Snow Depth Not available.
7:19 AM 5:59 PM
Waxing Crescent, 13% visible
METAR KBKW 111751Z AUTO 28009KT 10SM BKN030 M08/M16 A3009 RMK AO2 SLP246 60000 T10781156 11078 21122 58002

10-Day Weather Forecast

Almanac

Astronomy

Feb. 11, 2016 Rise Set
Actual Time
Civil Twilight
Nautical Twilight
Astronomical Twilight
Moon
Length of Visible Light
Length of Day
Tomorrow will be .
, % of the Moon is Illuminated

Today's Extremes

State Highs State Lows

Community

WunderPhotos

Upload Photos

1,892,125 photos uploaded!

WunderBlog® & News

Nearby

Air Quality

  Air Quality AQ Index Pollutant
Not available.

Snow Depth

Station Depth Elevation

Earthquake Activity

City Distance Mag. Time & Date
Minimum magnitude displayed is 2.5.

Coastal Water Temperatures

Place Temperature

Stations

Nearby Weather Stations

Station Location Temp. Windchill Dew Point Humidity Wind Precip. Elev Updated Type
                   

Watches & Warnings

There are currently no watches in effect.